createdAt,value
2022-07-29T00:02:15.753Z,57.70
2022-07-29T00:04:42.488Z,57.71
2022-07-29T00:07:09.331Z,57.54
2022-07-29T00:09:43.037Z,57.76
2022-07-29T00:12:25.768Z,57.80
2022-07-29T00:14:55.354Z,58.06
2022-07-29T00:17:22.658Z,58.13
2022-07-29T00:19:49.242Z,58.06
2022-07-29T00:22:16.217Z,57.74
2022-07-29T00:24:43.519Z,57.95
2022-07-29T00:27:10.202Z,57.74
2022-07-29T00:29:36.769Z,57.54
2022-07-29T00:32:03.984Z,58.34
2022-07-29T00:34:50.308Z,58.09
2022-07-29T00:37:17.308Z,57.86
2022-07-29T00:39:44.138Z,58.17
2022-07-29T00:42:10.875Z,58.19
2022-07-29T00:44:42.491Z,58.06
2022-07-29T00:47:10.843Z,58.61
2022-07-29T00:49:39.502Z,58.19
2022-07-29T00:52:06.834Z,58.10
2022-07-29T00:54:35.037Z,58.24
2022-07-29T00:57:02.460Z,59.00
2022-07-29T00:59:34.917Z,58.42
2022-07-29T01:02:03.304Z,57.78
2022-07-29T01:04:31.033Z,58.06
2022-07-29T01:06:58.057Z,57.91
2022-07-29T01:09:42.742Z,58.03
2022-07-29T01:12:19.970Z,58.61
2022-07-29T01:14:48.795Z,58.96
2022-07-29T01:17:25.266Z,58.88
2022-07-29T01:20:11.699Z,59.70
2022-07-29T01:22:54.912Z,59.06
2022-07-29T01:25:53.190Z,58.25
2022-07-29T01:28:43.955Z,58.98
2022-07-29T01:31:24.353Z,59.46
2022-07-29T01:33:59.208Z,59.01
2022-07-29T01:36:34.581Z,59.58
2022-07-29T01:39:21.230Z,59.96
2022-07-29T01:41:59.090Z,59.72
2022-07-29T01:44:56.878Z,59.44
2022-07-29T01:47:32.260Z,60.04
2022-07-29T01:50:01.211Z,59.77
2022-07-29T01:52:53.747Z,58.90
2022-07-29T01:55:23.630Z,59.84
2022-07-29T01:57:52.005Z,59.88
2022-07-29T02:00:19.334Z,59.68
2022-07-29T02:02:48.723Z,59.89
2022-07-29T02:05:18.507Z,59.78
2022-07-29T02:07:48.378Z,59.36
2022-07-29T02:10:16.770Z,60.13
2022-07-29T02:12:50.745Z,59.50
2022-07-29T02:15:19.173Z,59.74
2022-07-29T02:17:56.158Z,59.90
2022-07-29T02:20:26.244Z,59.39
2022-07-29T02:22:54.441Z,59.42
2022-07-29T02:25:23.261Z,59.80
2022-07-29T02:27:52.366Z,59.74
2022-07-29T02:30:20.707Z,59.68
2022-07-29T02:32:49.357Z,60.10
2022-07-29T02:35:17.309Z,60.47
2022-07-29T02:37:46.377Z,60.64
2022-07-29T02:40:15.916Z,60.52
2022-07-29T02:42:47.520Z,59.97
2022-07-29T02:45:14.175Z,60.94
2022-07-29T02:47:44.638Z,60.89
2022-07-29T02:50:16.642Z,59.31
2022-07-29T02:52:48.601Z,60.72
2022-07-29T02:55:30.754Z,59.78
2022-07-29T02:58:09.446Z,59.82
2022-07-29T03:00:40.386Z,59.88
2022-07-29T03:03:11.970Z,60.26
2022-07-29T03:05:39.469Z,60.77
2022-07-29T03:08:10.322Z,60.63
2022-07-29T03:10:39.927Z,61.56
2022-07-29T03:13:08.701Z,61.77
2022-07-29T03:15:36.034Z,61.99
2022-07-29T03:18:03.580Z,61.73
2022-07-29T03:20:30.233Z,60.89
2022-07-29T03:22:56.701Z,61.56
2022-07-29T03:25:23.398Z,61.76
2022-07-29T03:27:50.927Z,61.47
2022-07-29T03:30:21.784Z,61.38
2022-07-29T03:32:50.038Z,60.78
2022-07-29T03:35:19.304Z,60.78
2022-07-29T03:37:46.637Z,61.01
2022-07-29T03:40:20.946Z,60.87
2022-07-29T03:42:49.771Z,61.07
2022-07-29T03:45:19.424Z,60.77
2022-07-29T03:47:57.048Z,61.43
2022-07-29T03:50:26.766Z,61.52
2022-07-29T03:52:53.757Z,61.78
2022-07-29T03:55:20.403Z,61.51
2022-07-29T03:57:48.435Z,61.30
2022-07-29T04:00:17.134Z,61.93
2022-07-29T04:02:49.989Z,61.87
2022-07-29T04:05:17.802Z,61.74
2022-07-29T04:07:46.227Z,61.84
2022-07-29T04:10:12.790Z,62.05
2022-07-29T04:12:39.406Z,61.70
2022-07-29T04:15:06.685Z,61.34
2022-07-29T04:17:33.216Z,61.43
2022-07-29T04:20:00.390Z,61.24
2022-07-29T04:22:27.120Z,60.78
2022-07-29T04:24:54.090Z,60.77
2022-07-29T04:27:20.713Z,61.15
2022-07-29T04:29:56.163Z,60.74
2022-07-29T04:32:25.170Z,61.73
2022-07-29T04:34:51.947Z,61.32
2022-07-29T04:37:18.610Z,60.59
2022-07-29T04:39:45.126Z,61.53
2022-07-29T04:42:12.222Z,60.81
2022-07-29T04:44:43.048Z,61.53
2022-07-29T04:47:10.129Z,61.51
2022-07-29T04:49:39.313Z,61.63
2022-07-29T04:52:06.812Z,61.39
2022-07-29T04:54:33.973Z,62.15
2022-07-29T04:57:00.603Z,61.88
2022-07-29T04:59:27.664Z,62.79
2022-07-29T05:01:54.307Z,62.19
2022-07-29T05:04:21.089Z,61.66
2022-07-29T05:06:47.884Z,61.87
2022-07-29T05:09:14.490Z,62.05
2022-07-29T05:11:40.980Z,61.32
2022-07-29T05:14:07.510Z,61.47
2022-07-29T05:16:34.426Z,61.86
2022-07-29T05:19:01.014Z,61.27
2022-07-29T05:21:27.534Z,61.44
2022-07-29T05:23:54.098Z,61.84
2022-07-29T05:26:20.634Z,61.33
2022-07-29T05:28:47.127Z,62.15
2022-07-29T05:31:15.571Z,62.42
2022-07-29T05:33:43.335Z,61.60
2022-07-29T05:36:10.814Z,60.88
2022-07-29T05:38:37.635Z,60.89
2022-07-29T05:41:05.326Z,60.93
2022-07-29T05:43:32.162Z,61.43
2022-07-29T05:45:59.023Z,61.46
2022-07-29T05:48:25.873Z,61.72
2022-07-29T05:50:52.398Z,61.80
2022-07-29T05:53:20.515Z,61.70
2022-07-29T05:55:48.720Z,60.90
2022-07-29T05:58:15.307Z,62.32
2022-07-29T06:00:41.839Z,61.72
2022-07-29T06:03:08.564Z,61.78
2022-07-29T06:05:35.174Z,62.33
2022-07-29T06:08:01.762Z,61.64
2022-07-29T06:10:28.420Z,62.49
2022-07-29T06:12:54.917Z,61.94
2022-07-29T06:15:21.485Z,61.59
2022-07-29T06:18:00.524Z,61.64
2022-07-29T06:20:32.553Z,62.08
2022-07-29T06:23:00.373Z,62.52
2022-07-29T06:25:30.047Z,62.50
2022-07-29T06:27:56.960Z,62.34
2022-07-29T06:30:23.687Z,62.15
2022-07-29T06:32:50.553Z,61.63
2022-07-29T06:35:39.081Z,61.99
2022-07-29T06:38:09.520Z,62.64
2022-07-29T06:41:03.833Z,62.78
2022-07-29T06:43:52.274Z,61.69
2022-07-29T06:46:23.019Z,61.74
2022-07-29T06:48:51.562Z,61.25
2022-07-29T06:51:21.795Z,60.59
2022-07-29T06:54:01.422Z,60.59
2022-07-29T06:56:39.584Z,61.34
2022-07-29T06:59:07.971Z,59.67
2022-07-29T07:01:34.798Z,59.92
2022-07-29T07:04:01.541Z,60.10
2022-07-29T07:06:28.403Z,59.78
2022-07-29T07:08:54.932Z,60.78
2022-07-29T07:11:21.638Z,60.61
2022-07-29T07:13:48.165Z,60.96
2022-07-29T07:16:14.743Z,59.65
2022-07-29T07:18:41.671Z,59.76
2022-07-29T07:21:08.219Z,58.54
2022-07-29T07:23:34.726Z,58.08
2022-07-29T07:26:01.339Z,56.56
2022-07-29T07:28:27.847Z,56.27
2022-07-29T07:30:54.468Z,56.73
2022-07-29T07:33:21.390Z,55.86
2022-07-29T07:35:48.260Z,56.62
2022-07-29T07:38:14.787Z,56.93
2022-07-29T07:40:42.329Z,56.97
2022-07-29T07:43:08.818Z,57.36
2022-07-29T07:45:37.899Z,56.87
2022-07-29T07:48:04.955Z,57.60
2022-07-29T07:50:31.540Z,55.95
2022-07-29T07:52:58.896Z,57.05
2022-07-29T07:55:26.820Z,56.90
2022-07-29T07:57:54.187Z,56.50
2022-07-29T08:00:23.608Z,55.45
2022-07-29T08:02:51.456Z,54.63
2022-07-29T08:05:18.581Z,54.49
2022-07-29T08:07:47.081Z,55.21
2022-07-29T08:10:38.008Z,54.98
2022-07-29T08:13:08.945Z,55.06
2022-07-29T08:15:35.830Z,53.62
2022-07-29T08:18:08.027Z,53.89
2022-07-29T08:20:36.715Z,54.24
2022-07-29T08:23:04.264Z,53.31
2022-07-29T08:25:31.326Z,51.83
2022-07-29T08:27:57.919Z,52.85
2022-07-29T08:30:24.677Z,51.58
2022-07-29T08:32:55.005Z,52.29
2022-07-29T08:35:23.987Z,52.02
2022-07-29T08:37:53.004Z,52.46
2022-07-29T08:40:30.473Z,51.62
2022-07-29T08:42:59.900Z,51.87
2022-07-29T08:45:26.885Z,50.26
2022-07-29T08:47:53.549Z,49.60
2022-07-29T08:50:20.289Z,50.24
2022-07-29T08:52:47.888Z,50.21
2022-07-29T08:55:16.351Z,50.45
2022-07-29T08:57:53.429Z,49.19
2022-07-29T09:00:26.099Z,50.22
2022-07-29T09:02:58.035Z,49.54
2022-07-29T09:05:40.166Z,49.22
2022-07-29T09:08:08.124Z,49.48
2022-07-29T09:10:36.539Z,49.70
2022-07-29T09:13:03.482Z,49.64
2022-07-29T09:15:30.047Z,50.23
2022-07-29T09:17:57.578Z,49.44
2022-07-29T09:20:24.280Z,49.02
2022-07-29T09:22:54.099Z,48.87
2022-07-29T09:25:37.512Z,49.51
2022-07-29T09:28:12.673Z,50.18
2022-07-29T09:31:11.703Z,50.19
2022-07-29T09:33:41.603Z,50.02
2022-07-29T09:36:10.322Z,49.78
2022-07-29T09:38:38.206Z,50.04
2022-07-29T09:41:06.841Z,50.07
2022-07-29T09:43:34.429Z,49.16
2022-07-29T09:46:14.775Z,49.43
2022-07-29T09:48:41.412Z,49.12
2022-07-29T09:51:25.571Z,48.21
2022-07-29T09:53:55.264Z,48.90
2022-07-29T09:56:49.883Z,48.68
2022-07-29T09:59:16.851Z,48.42
2022-07-29T10:01:43.561Z,47.94
2022-07-29T10:04:10.248Z,47.78
2022-07-29T10:07:03.542Z,47.50
2022-07-29T10:09:31.593Z,47.24
2022-07-29T10:12:11.968Z,46.39
2022-07-29T10:14:39.444Z,45.77
2022-07-29T10:17:07.537Z,45.85
2022-07-29T10:19:35.940Z,45.15
2022-07-29T10:22:05.089Z,44.88
2022-07-29T10:24:33.214Z,44.82
2022-07-29T10:27:04.220Z,44.48
2022-07-29T10:29:32.398Z,44.40
2022-07-29T10:32:26.715Z,43.63
2022-07-29T10:35:05.109Z,44.33
2022-07-29T10:37:58.750Z,44.31
2022-07-29T10:40:58.697Z,44.25
2022-07-29T10:43:29.828Z,43.91
2022-07-29T10:45:59.257Z,43.86
2022-07-29T10:48:25.896Z,44.14
2022-07-29T10:51:04.654Z,43.95
2022-07-29T10:53:52.317Z,43.87
2022-07-29T10:56:30.895Z,43.75
2022-07-29T10:59:20.258Z,42.89
2022-07-29T11:01:53.603Z,43.10
2022-07-29T11:04:45.904Z,42.45
2022-07-29T11:10:12.855Z,42.70
2022-07-29T11:12:43.478Z,42.42
2022-07-29T11:15:24.970Z,42.64
2022-07-29T11:17:54.629Z,41.34
2022-07-29T11:20:45.584Z,40.74
2022-07-29T11:23:28.266Z,40.59
2022-07-29T11:26:23.041Z,41.02
2022-07-29T11:29:00.533Z,40.68
2022-07-29T11:31:42.440Z,40.20
2022-07-29T11:34:21.252Z,41.65
2022-07-29T11:37:08.065Z,39.74
2022-07-29T11:39:36.955Z,40.10
2022-07-29T11:45:42.818Z,40.39
2022-07-29T11:48:05.665Z,41.08
2022-07-29T11:50:48.226Z,41.35
2022-07-29T11:53:15.299Z,41.86
2022-07-29T11:55:51.583Z,41.67
2022-07-29T11:58:25.177Z,40.93
2022-07-29T12:00:52.943Z,39.18
2022-07-29T12:03:34.797Z,39.55
2022-07-29T12:06:02.111Z,41.83
2022-07-29T12:08:28.878Z,38.72
2022-07-29T12:10:55.495Z,39.64
2022-07-29T12:13:22.366Z,39.88
2022-07-29T12:16:00.025Z,40.68
2022-07-29T12:18:27.812Z,40.52
2022-07-29T12:21:03.201Z,40.55
2022-07-29T12:23:34.446Z,40.53
2022-07-29T12:26:07.617Z,40.29
2022-07-29T12:28:40.233Z,40.71
2022-07-29T12:31:13.900Z,40.25
2022-07-29T12:33:40.888Z,40.29
2022-07-29T12:36:12.894Z,39.43
2022-07-29T12:38:45.083Z,39.72
2022-07-29T12:41:11.830Z,39.35
2022-07-29T12:43:38.421Z,40.01
2022-07-29T12:46:16.113Z,38.23
2022-07-29T12:48:44.331Z,38.92
2022-07-29T12:51:15.092Z,38.65
2022-07-29T12:53:41.858Z,38.52
2022-07-29T12:56:41.270Z,39.13
2022-07-29T12:59:22.407Z,38.64
2022-07-29T13:01:51.429Z,39.02
2022-07-29T13:04:32.651Z,40.22
2022-07-29T13:07:08.108Z,38.21
2022-07-29T13:09:41.863Z,37.71
2022-07-29T13:12:13.279Z,38.75
2022-07-29T13:14:42.201Z,38.65
2022-07-29T13:17:11.304Z,38.75
2022-07-29T13:19:48.833Z,38.58
2022-07-29T13:22:23.063Z,37.30
2022-07-29T13:24:52.731Z,36.67
2022-07-29T13:27:39.727Z,36.25
2022-07-29T13:30:09.215Z,36.43
2022-07-29T13:32:37.310Z,37.89
2022-07-29T13:35:06.846Z,36.14
2022-07-29T13:37:35.998Z,36.86
2022-07-29T13:40:04.129Z,35.64
2022-07-29T13:42:31.647Z,34.80
2022-07-29T13:44:58.311Z,33.87
2022-07-29T13:47:32.849Z,34.88
2022-07-29T13:50:01.055Z,34.80
2022-07-29T13:52:29.435Z,34.94
2022-07-29T13:54:55.978Z,34.72
2022-07-29T13:57:22.505Z,34.51
2022-07-29T13:59:53.716Z,35.89
2022-07-29T14:02:21.388Z,34.80
2022-07-29T14:04:55.997Z,36.05
2022-07-29T14:07:22.668Z,36.57
2022-07-29T14:09:49.201Z,35.52
2022-07-29T14:12:15.807Z,35.73
2022-07-29T14:14:42.549Z,35.78
2022-07-29T14:17:09.837Z,34.99
2022-07-29T14:19:36.851Z,35.07
2022-07-29T14:22:05.923Z,33.19
2022-07-29T14:24:36.990Z,33.46
2022-07-29T14:27:04.832Z,32.89
2022-07-29T14:29:37.114Z,32.93
2022-07-29T14:32:07.195Z,35.20
2022-07-29T14:34:34.349Z,32.29
2022-07-29T14:37:00.883Z,32.38
2022-07-29T14:39:31.834Z,31.80
2022-07-29T14:41:59.043Z,30.91
2022-07-29T14:44:30.894Z,31.28
2022-07-29T14:47:01.285Z,31.15
2022-07-29T14:49:34.518Z,30.83
2022-07-29T14:52:01.412Z,31.98
2022-07-29T14:54:28.323Z,31.93
2022-07-29T14:56:58.307Z,31.96
2022-07-29T14:59:25.684Z,31.54
2022-07-29T15:01:52.341Z,33.08
2022-07-29T15:04:19.203Z,33.77
2022-07-29T15:06:45.785Z,32.97
2022-07-29T15:09:12.805Z,34.39
2022-07-29T15:11:39.331Z,31.23
2022-07-29T15:14:06.888Z,31.27
2022-07-29T15:16:36.220Z,31.19
2022-07-29T15:19:02.989Z,32.29
2022-07-29T15:21:29.474Z,32.77
2022-07-29T15:23:55.981Z,32.17
2022-07-29T15:26:22.595Z,31.14
2022-07-29T15:28:49.462Z,32.42
2022-07-29T15:31:16.149Z,32.86
2022-07-29T15:33:42.736Z,32.79
2022-07-29T15:36:09.539Z,30.58
2022-07-29T15:38:36.278Z,30.99
2022-07-29T15:41:09.328Z,32.30
2022-07-29T15:43:36.381Z,31.16
2022-07-29T15:46:21.628Z,31.14
2022-07-29T15:48:48.435Z,33.15
2022-07-29T15:51:15.144Z,32.17
2022-07-29T15:53:41.774Z,31.51
2022-07-29T15:56:08.305Z,31.75
2022-07-29T15:58:34.838Z,31.82
2022-07-29T16:01:01.494Z,32.64
2022-07-29T16:03:28.333Z,33.13
2022-07-29T16:05:54.846Z,32.43
2022-07-29T16:08:21.339Z,31.43
2022-07-29T16:10:47.972Z,30.99
2022-07-29T16:13:18.831Z,31.16
2022-07-29T16:15:46.629Z,31.83
2022-07-29T16:18:30.413Z,30.56
2022-07-29T16:20:57.284Z,29.49
2022-07-29T16:23:24.648Z,30.97
2022-07-29T16:25:59.691Z,30.75
2022-07-29T16:28:26.910Z,30.31
2022-07-29T16:30:53.626Z,29.00
2022-07-29T16:33:20.166Z,28.62
2022-07-29T16:35:46.746Z,27.99
2022-07-29T16:38:13.439Z,28.39
2022-07-29T16:40:40.042Z,27.46
2022-07-29T16:43:06.663Z,26.89
2022-07-29T16:45:46.131Z,28.12
2022-07-29T16:48:14.508Z,26.38
2022-07-29T16:50:41.203Z,25.93
2022-07-29T16:53:10.302Z,25.68
2022-07-29T16:55:36.999Z,25.57
2022-07-29T16:58:05.279Z,26.10
2022-07-29T17:00:31.960Z,26.01
2022-07-29T17:03:00.047Z,25.09
2022-07-29T17:05:29.553Z,25.29
2022-07-29T17:08:16.191Z,23.67
2022-07-29T17:10:42.764Z,24.86
2022-07-29T17:13:09.643Z,24.28
2022-07-29T17:15:36.675Z,24.02
2022-07-29T17:18:04.166Z,24.35
2022-07-29T17:20:39.546Z,21.89
2022-07-29T17:23:06.134Z,21.86
2022-07-29T17:25:32.691Z,22.52
2022-07-29T17:28:01.190Z,22.75
2022-07-29T17:30:28.381Z,22.62
2022-07-29T17:32:55.097Z,21.54
2022-07-29T17:35:40.514Z,21.83
2022-07-29T17:38:07.219Z,21.70
2022-07-29T17:40:33.746Z,22.85
2022-07-29T17:43:00.339Z,22.93
2022-07-29T17:45:49.490Z,23.31
2022-07-29T17:48:14.264Z,23.01
2022-07-29T17:50:40.871Z,23.16
2022-07-29T17:53:15.578Z,21.83
2022-07-29T17:55:48.554Z,21.88
2022-07-29T17:58:16.339Z,22.62
2022-07-29T18:00:43.312Z,21.61
2022-07-29T18:03:10.106Z,23.47
2022-07-29T18:05:36.912Z,22.80
2022-07-29T18:08:03.702Z,22.60
2022-07-29T18:10:30.372Z,23.64
2022-07-29T18:12:57.055Z,24.19
2022-07-29T18:15:23.723Z,23.92
2022-07-29T18:17:57.206Z,25.04
2022-07-29T18:20:26.614Z,23.99
2022-07-29T18:22:54.404Z,23.24
2022-07-29T18:25:21.004Z,23.98
2022-07-29T18:27:47.619Z,24.95
2022-07-29T18:30:17.036Z,25.68
2022-07-29T18:32:59.132Z,25.04
2022-07-29T18:35:30.721Z,25.77
2022-07-29T18:38:02.169Z,26.78
2022-07-29T18:40:29.759Z,29.29
2022-07-29T18:42:56.555Z,30.36
2022-07-29T18:45:23.325Z,32.94
2022-07-29T18:47:58.584Z,34.59
2022-07-29T18:50:29.248Z,32.94
2022-07-29T18:52:58.642Z,36.48
2022-07-29T18:55:26.173Z,36.39
2022-07-29T18:57:54.116Z,37.16
2022-07-29T19:00:23.914Z,38.46
2022-07-29T19:02:51.150Z,38.59
2022-07-29T19:05:18.078Z,38.01
2022-07-29T19:07:44.783Z,38.27
2022-07-29T19:10:12.230Z,39.85
2022-07-29T19:12:39.156Z,40.75
2022-07-29T19:15:07.648Z,40.80
2022-07-29T19:17:34.272Z,41.69
2022-07-29T19:20:00.907Z,41.96
2022-07-29T19:22:27.765Z,41.60
2022-07-29T19:24:54.486Z,41.71
2022-07-29T19:27:21.025Z,42.29
2022-07-29T19:29:47.706Z,42.87
2022-07-29T19:32:24.480Z,42.60
2022-07-29T19:35:11.206Z,42.80
2022-07-29T19:37:37.708Z,43.51
2022-07-29T19:40:05.965Z,44.64
2022-07-29T19:42:32.629Z,44.39
2022-07-29T19:44:59.114Z,44.31
2022-07-29T19:47:25.725Z,44.81
2022-07-29T19:49:52.246Z,45.14
2022-07-29T19:52:18.855Z,44.73
2022-07-29T19:54:46.666Z,46.08
2022-07-29T19:57:13.181Z,46.45
2022-07-29T19:59:41.011Z,46.42
2022-07-29T20:02:10.850Z,46.81
2022-07-29T20:04:37.538Z,46.72
2022-07-29T20:07:04.697Z,45.70
2022-07-29T20:09:31.816Z,47.02
2022-07-29T20:11:58.493Z,47.20
2022-07-29T20:14:25.022Z,47.38
2022-07-29T20:16:53.665Z,47.89
2022-07-29T20:19:20.217Z,48.08
2022-07-29T20:21:46.749Z,48.39
2022-07-29T20:24:13.459Z,49.26
2022-07-29T20:26:40.033Z,49.71
2022-07-29T20:29:06.769Z,49.84
2022-07-29T20:31:33.429Z,49.56
2022-07-29T20:34:02.698Z,49.49
2022-07-29T20:36:29.340Z,49.53
2022-07-29T20:38:56.635Z,50.01
2022-07-29T20:41:23.437Z,50.26
2022-07-29T20:43:50.136Z,50.70
2022-07-29T20:46:18.259Z,51.09
2022-07-29T20:48:46.918Z,51.48
2022-07-29T20:51:14.713Z,51.82
2022-07-29T20:53:41.629Z,52.11
2022-07-29T20:56:08.409Z,51.92
2022-07-29T20:58:36.273Z,52.64
2022-07-29T21:01:03.766Z,52.22
2022-07-29T21:03:30.507Z,51.99
2022-07-29T21:05:57.524Z,51.90
2022-07-29T21:08:24.474Z,51.51
2022-07-29T21:10:51.789Z,51.62
2022-07-29T21:13:20.601Z,51.86
2022-07-29T21:15:49.791Z,51.62
2022-07-29T21:18:34.458Z,51.88
2022-07-29T21:21:01.215Z,52.17
2022-07-29T21:23:27.939Z,52.32
2022-07-29T21:25:55.168Z,52.95
2022-07-29T21:28:29.387Z,53.89
2022-07-29T21:30:59.700Z,54.73
2022-07-29T21:33:29.634Z,55.83
2022-07-29T21:36:20.187Z,56.39
2022-07-29T21:38:42.963Z,56.33
2022-07-29T21:41:13.556Z,57.41
2022-07-29T21:43:41.956Z,57.59
2022-07-29T21:46:09.509Z,57.63
2022-07-29T21:48:36.096Z,58.24
2022-07-29T21:51:02.575Z,58.46
2022-07-29T21:53:29.356Z,59.09
2022-07-29T21:55:57.286Z,58.96
2022-07-29T21:58:24.626Z,59.31
2022-07-29T22:00:51.486Z,59.08
2022-07-29T22:03:18.044Z,59.20
2022-07-29T22:05:44.749Z,59.17
2022-07-29T22:08:11.673Z,60.32
2022-07-29T22:10:38.273Z,60.34
2022-07-29T22:13:04.944Z,62.91
2022-07-29T22:15:31.875Z,63.11
2022-07-29T22:17:58.947Z,64.56
2022-07-29T22:20:25.629Z,65.43
2022-07-29T22:22:52.931Z,64.69
2022-07-29T22:25:19.631Z,65.23
2022-07-29T22:27:46.210Z,65.23
2022-07-29T22:30:13.518Z,65.70
2022-07-29T22:32:40.437Z,65.27
2022-07-29T22:35:07.621Z,65.57
2022-07-29T22:37:34.422Z,67.45
2022-07-29T22:40:00.898Z,66.16
2022-07-29T22:42:27.437Z,66.35
2022-07-29T22:44:54.130Z,65.70
2022-07-29T22:47:45.927Z,65.13
2022-07-29T22:50:07.589Z,65.71
2022-07-29T22:52:34.283Z,65.68
2022-07-29T22:55:00.845Z,64.49
2022-07-29T22:57:27.396Z,64.23
2022-07-29T22:59:53.909Z,64.65
2022-07-29T23:02:20.412Z,65.10
2022-07-29T23:04:47.042Z,64.24
2022-07-29T23:07:13.577Z,64.35
2022-07-29T23:09:40.128Z,64.01
2022-07-29T23:12:07.034Z,64.50
2022-07-29T23:14:33.533Z,64.87
2022-07-29T23:17:00.499Z,64.66
2022-07-29T23:19:27.424Z,65.16
2022-07-29T23:21:54.011Z,66.21
2022-07-29T23:24:20.606Z,66.54
2022-07-29T23:26:47.211Z,68.24
2022-07-29T23:29:13.771Z,66.95
2022-07-29T23:31:41.787Z,66.36
2022-07-29T23:34:14.335Z,66.27
2022-07-29T23:36:42.153Z,66.92
2022-07-29T23:39:11.296Z,67.45
2022-07-29T23:41:38.068Z,67.44
2022-07-29T23:44:04.878Z,66.95
2022-07-29T23:46:31.699Z,68.52
2022-07-29T23:48:58.299Z,68.58
2022-07-29T23:51:24.982Z,70.62
2022-07-29T23:53:53.871Z,69.95
2022-07-29T23:56:21.042Z,69.87
2022-07-29T23:58:47.877Z,69.93
